createdAt,value
2023-04-29T00:00:19.609Z,72.18
2023-04-29T00:02:55.888Z,72.97
2023-04-29T00:05:28.048Z,72.78
2023-04-29T00:08:00.096Z,72.98
2023-04-29T00:10:31.909Z,72.79
2023-04-29T00:13:03.643Z,73.18
2023-04-29T00:15:38.030Z,73.35
2023-04-29T00:18:10.526Z,73.13
2023-04-29T00:20:47.659Z,73.08
2023-04-29T00:23:19.969Z,73.33
2023-04-29T00:25:53.576Z,73.03
2023-04-29T00:28:28.435Z,73.15
2023-04-29T00:31:04.719Z,73.29
2023-04-29T00:33:40.779Z,72.75
2023-04-29T00:36:12.711Z,72.69
2023-04-29T00:38:44.563Z,73.04
2023-04-29T00:41:21.224Z,72.85
2023-04-29T00:43:53.077Z,72.78
2023-04-29T00:46:27.940Z,72.51
2023-04-29T00:49:00.511Z,72.87
2023-04-29T00:51:33.387Z,73.10
2023-04-29T00:54:05.765Z,72.89
2023-04-29T00:56:42.022Z,73.36
2023-04-29T00:59:15.525Z,72.90
2023-04-29T01:01:48.226Z,73.46
2023-04-29T01:04:20.176Z,73.43
2023-04-29T01:07:17.087Z,73.19
2023-04-29T01:10:27.180Z,73.36
2023-04-29T01:13:13.475Z,73.37
2023-04-29T01:16:02.367Z,73.22
2023-04-29T01:18:39.346Z,73.37
2023-04-29T01:21:12.471Z,73.21
2023-04-29T01:23:47.950Z,73.28
2023-04-29T01:26:19.754Z,73.35
2023-04-29T01:29:26.081Z,73.58
2023-04-29T01:32:14.449Z,74.01
2023-04-29T01:35:11.552Z,73.83
2023-04-29T01:37:56.027Z,74.01
2023-04-29T01:40:46.211Z,74.31
2023-04-29T01:43:32.832Z,74.59
2023-04-29T01:46:17.288Z,75.07
2023-04-29T01:48:52.546Z,75.24
2023-04-29T01:51:52.726Z,74.74
2023-04-29T01:54:25.829Z,75.56
2023-04-29T01:56:58.734Z,75.71
2023-04-29T01:59:36.494Z,75.93
2023-04-29T02:02:31.593Z,75.75
2023-04-29T02:05:13.599Z,75.95
2023-04-29T02:07:56.432Z,76.07
2023-04-29T02:10:28.528Z,76.57
2023-04-29T02:13:13.638Z,76.28
2023-04-29T02:15:46.483Z,76.36
2023-04-29T02:18:20.070Z,76.80
2023-04-29T02:21:00.892Z,76.51
2023-04-29T02:23:35.963Z,76.79
2023-04-29T02:26:09.366Z,76.80
2023-04-29T02:28:41.189Z,77.33
2023-04-29T02:31:13.729Z,77.10
2023-04-29T02:33:45.430Z,77.19
2023-04-29T02:36:18.244Z,77.13
2023-04-29T02:38:51.481Z,77.15
2023-04-29T02:41:23.674Z,77.14
2023-04-29T02:44:00.813Z,77.37
2023-04-29T02:46:33.663Z,78.00
2023-04-29T02:49:08.432Z,78.06
2023-04-29T02:51:41.379Z,78.17
2023-04-29T02:54:13.583Z,78.89
2023-04-29T02:56:45.358Z,79.15
2023-04-29T02:59:17.166Z,79.73
2023-04-29T03:01:49.163Z,79.74
2023-04-29T03:04:21.238Z,79.70
2023-04-29T03:06:54.769Z,80.20
2023-04-29T03:09:26.732Z,79.70
2023-04-29T03:11:58.460Z,79.80
2023-04-29T03:14:30.242Z,80.27
2023-04-29T03:17:03.209Z,80.73
2023-04-29T03:19:35.256Z,80.84
2023-04-29T03:22:08.275Z,80.72
2023-04-29T03:24:40.520Z,80.71
2023-04-29T03:27:13.394Z,80.77
2023-04-29T03:29:46.616Z,81.04
2023-04-29T03:32:18.586Z,81.23
2023-04-29T03:34:51.183Z,81.28
2023-04-29T03:37:53.606Z,81.37
2023-04-29T03:40:29.237Z,81.63
2023-04-29T03:43:01.149Z,81.88
2023-04-29T03:45:33.340Z,81.75
2023-04-29T03:48:06.300Z,81.97
2023-04-29T03:50:41.131Z,82.06
2023-04-29T03:53:15.216Z,82.45
2023-04-29T03:55:49.959Z,82.50
2023-04-29T03:58:23.731Z,82.71
2023-04-29T04:00:57.048Z,83.21
2023-04-29T04:03:36.216Z,82.85
2023-04-29T04:06:08.340Z,83.10
2023-04-29T04:08:41.336Z,83.08
2023-04-29T04:11:27.735Z,83.50
2023-04-29T04:14:06.269Z,83.39
2023-04-29T04:16:43.136Z,82.67
2023-04-29T04:19:16.438Z,84.15
2023-04-29T04:21:51.067Z,84.13
2023-04-29T04:24:23.813Z,84.53
2023-04-29T04:26:55.853Z,85.54
2023-04-29T04:29:33.858Z,85.74
2023-04-29T04:32:15.509Z,85.76
2023-04-29T04:34:47.300Z,86.04
2023-04-29T04:37:19.971Z,85.83
2023-04-29T04:39:56.544Z,85.68
2023-04-29T04:42:35.849Z,85.52
2023-04-29T04:45:11.382Z,85.26
2023-04-29T04:47:55.822Z,85.00
2023-04-29T04:50:32.631Z,84.96
2023-04-29T04:53:05.552Z,84.76
2023-04-29T04:56:03.935Z,85.17
2023-04-29T04:58:37.033Z,84.94
2023-04-29T05:01:09.566Z,85.08
2023-04-29T05:03:41.606Z,85.02
2023-04-29T05:06:13.879Z,86.23
2023-04-29T05:08:49.779Z,86.24
2023-04-29T05:11:23.753Z,86.23
2023-04-29T05:14:14.772Z,86.42
2023-04-29T05:16:47.019Z,86.73
2023-04-29T05:19:22.488Z,86.44
2023-04-29T05:21:57.676Z,86.14
2023-04-29T05:24:30.450Z,85.87
2023-04-29T05:27:23.616Z,85.93
2023-04-29T05:29:55.865Z,85.60
2023-04-29T05:32:27.957Z,85.23
2023-04-29T05:35:04.192Z,85.08
2023-04-29T05:37:37.265Z,84.56
2023-04-29T05:40:20.412Z,84.49
2023-04-29T05:42:53.743Z,84.42
2023-04-29T05:45:26.603Z,84.18
2023-04-29T05:48:01.257Z,83.64
2023-04-29T05:50:35.295Z,83.50
2023-04-29T05:53:10.064Z,82.72
2023-04-29T05:55:44.994Z,82.07
2023-04-29T05:58:18.341Z,80.56
2023-04-29T06:00:50.122Z,79.15
2023-04-29T06:03:29.788Z,78.70
2023-04-29T06:06:28.940Z,77.45
2023-04-29T06:09:28.213Z,76.46
2023-04-29T06:12:09.077Z,76.25
2023-04-29T06:14:40.761Z,75.60
2023-04-29T06:17:15.178Z,74.93
2023-04-29T06:19:47.568Z,73.56
2023-04-29T06:22:19.301Z,71.91
2023-04-29T06:24:54.966Z,70.70
2023-04-29T06:27:51.216Z,70.13
2023-04-29T06:30:27.271Z,69.81
2023-04-29T06:32:59.941Z,70.29
2023-04-29T06:35:31.761Z,69.61
2023-04-29T06:38:38.772Z,68.52
2023-04-29T06:41:30.457Z,67.77
2023-04-29T06:44:27.825Z,66.18
2023-04-29T06:47:29.442Z,65.05
2023-04-29T06:50:17.784Z,64.32
2023-04-29T06:52:49.510Z,64.11
2023-04-29T06:55:21.663Z,63.01
2023-04-29T06:57:54.180Z,62.07
2023-04-29T07:00:28.982Z,61.01
2023-04-29T07:03:03.112Z,60.57
2023-04-29T07:05:35.080Z,59.01
2023-04-29T07:08:07.935Z,58.37
2023-04-29T07:10:40.116Z,57.42
2023-04-29T07:13:12.135Z,57.96
2023-04-29T07:15:43.882Z,56.22
2023-04-29T07:18:15.598Z,55.83
2023-04-29T07:20:52.943Z,55.17
2023-04-29T07:23:27.579Z,54.33
2023-04-29T07:25:59.337Z,53.33
2023-04-29T07:28:31.111Z,53.37
2023-04-29T07:31:02.949Z,54.17
2023-04-29T07:33:35.867Z,53.78
2023-04-29T07:36:07.964Z,54.66
2023-04-29T07:38:40.571Z,54.99
2023-04-29T07:41:12.653Z,55.10
2023-04-29T07:43:45.664Z,55.63
2023-04-29T07:46:25.492Z,56.31
2023-04-29T07:48:58.349Z,56.48
2023-04-29T07:51:30.082Z,56.47
2023-04-29T07:54:01.771Z,56.17
2023-04-29T07:56:33.973Z,55.69
2023-04-29T07:59:05.678Z,55.65
2023-04-29T08:01:37.625Z,55.58
2023-04-29T08:04:09.448Z,56.12
2023-04-29T08:06:51.075Z,53.86
2023-04-29T08:09:22.882Z,52.86
2023-04-29T08:11:54.667Z,50.96
2023-04-29T08:14:26.747Z,49.85
2023-04-29T08:16:59.330Z,49.85
2023-04-29T08:19:34.241Z,47.11
2023-04-29T08:22:06.520Z,45.83
2023-04-29T08:24:38.307Z,45.58
2023-04-29T08:27:10.135Z,44.72
2023-04-29T08:29:47.224Z,44.07
2023-04-29T08:32:18.968Z,44.86
2023-04-29T08:34:50.852Z,44.89
2023-04-29T08:37:22.777Z,45.38
2023-04-29T08:39:54.558Z,47.06
2023-04-29T08:42:37.008Z,48.86
2023-04-29T08:45:15.823Z,46.97
2023-04-29T08:47:49.659Z,47.02
2023-04-29T08:50:24.057Z,46.93
2023-04-29T08:52:56.229Z,46.56
2023-04-29T08:55:27.988Z,47.50
2023-04-29T08:58:03.059Z,48.83
2023-04-29T09:00:35.901Z,50.46
2023-04-29T09:03:25.441Z,52.58
2023-04-29T09:06:00.982Z,54.87
2023-04-29T09:08:33.498Z,56.05
2023-04-29T09:11:11.291Z,57.43
2023-04-29T09:13:44.123Z,58.28
2023-04-29T09:16:16.021Z,59.30
2023-04-29T09:18:49.054Z,59.92
2023-04-29T09:21:27.366Z,60.25
2023-04-29T09:24:01.650Z,59.31
2023-04-29T09:26:43.356Z,59.37
2023-04-29T09:29:16.490Z,59.32
2023-04-29T09:31:49.537Z,59.46
2023-04-29T09:34:39.677Z,59.27
2023-04-29T09:37:28.111Z,59.56
2023-04-29T09:40:00.156Z,60.13
2023-04-29T09:42:43.724Z,60.51
2023-04-29T09:45:37.922Z,61.79
2023-04-29T09:48:13.627Z,60.96
2023-04-29T09:51:02.237Z,61.06
2023-04-29T09:53:37.996Z,62.12
2023-04-29T09:56:09.882Z,61.93
2023-04-29T09:58:41.595Z,60.19
2023-04-29T10:01:14.439Z,59.04
2023-04-29T10:03:49.195Z,59.04
2023-04-29T10:06:21.292Z,59.44
2023-04-29T10:08:56.238Z,58.36
2023-04-29T10:11:31.538Z,57.65
2023-04-29T10:14:05.594Z,55.75
2023-04-29T10:17:08.601Z,52.19
2023-04-29T10:19:57.333Z,50.20
2023-04-29T10:22:47.920Z,50.57
2023-04-29T10:25:21.825Z,51.68
2023-04-29T10:27:59.507Z,51.24
2023-04-29T10:30:32.621Z,52.07
2023-04-29T10:33:06.481Z,53.03
2023-04-29T10:35:38.673Z,53.43
2023-04-29T10:38:41.224Z,54.23
2023-04-29T10:41:26.847Z,55.91
2023-04-29T10:44:00.635Z,56.36
2023-04-29T10:46:33.702Z,57.24
2023-04-29T10:49:07.129Z,57.91
2023-04-29T10:51:45.901Z,57.91
2023-04-29T10:54:21.211Z,57.75
2023-04-29T10:56:54.347Z,57.76
2023-04-29T10:59:46.470Z,58.52
2023-04-29T11:02:20.074Z,58.25
2023-04-29T11:05:12.139Z,58.31
2023-04-29T11:07:50.379Z,57.55
2023-04-29T11:10:39.760Z,55.80
2023-04-29T11:13:29.450Z,54.70
2023-04-29T11:16:09.349Z,53.31
2023-04-29T11:19:09.642Z,53.18
2023-04-29T11:21:42.773Z,51.99
2023-04-29T11:24:16.353Z,52.31
2023-04-29T11:26:49.139Z,53.03
2023-04-29T11:29:22.685Z,53.47
2023-04-29T11:32:02.215Z,53.03
2023-04-29T11:34:37.172Z,52.91
2023-04-29T11:37:09.586Z,53.96
2023-04-29T11:39:52.357Z,55.06
2023-04-29T11:42:30.916Z,55.09
2023-04-29T11:45:02.687Z,54.75
2023-04-29T11:47:34.462Z,54.83
2023-04-29T11:50:08.928Z,54.27
2023-04-29T11:52:41.704Z,54.26
2023-04-29T11:55:14.657Z,54.34
2023-04-29T11:57:49.924Z,54.65
2023-04-29T12:00:24.750Z,54.56
2023-04-29T12:02:56.582Z,55.25
2023-04-29T12:05:28.557Z,53.67
2023-04-29T12:08:00.507Z,54.05
2023-04-29T12:10:32.637Z,53.28
2023-04-29T12:13:04.609Z,53.27
2023-04-29T12:15:37.407Z,53.87
2023-04-29T12:18:12.266Z,52.99
2023-04-29T12:20:45.103Z,53.52
2023-04-29T12:23:19.703Z,53.73
2023-04-29T12:25:53.814Z,53.73
2023-04-29T12:28:26.273Z,53.56
2023-04-29T12:30:59.696Z,53.74
2023-04-29T12:33:31.541Z,53.09
2023-04-29T12:36:03.665Z,52.85
2023-04-29T12:38:43.764Z,53.04
2023-04-29T12:41:18.683Z,52.65
2023-04-29T12:43:51.427Z,52.97
2023-04-29T12:46:23.748Z,52.93
2023-04-29T12:48:55.650Z,53.04
2023-04-29T12:51:27.477Z,53.05
2023-04-29T12:54:01.946Z,53.24
2023-04-29T12:56:34.073Z,53.93
2023-04-29T12:59:13.318Z,53.06
2023-04-29T13:01:45.596Z,52.83
2023-04-29T13:04:17.910Z,52.46
2023-04-29T13:06:54.257Z,53.28
2023-04-29T13:09:29.211Z,53.06
2023-04-29T13:12:03.314Z,52.56
2023-04-29T13:14:35.096Z,51.97
2023-04-29T13:17:07.320Z,51.98
2023-04-29T13:19:48.150Z,51.38
2023-04-29T13:22:23.145Z,51.37
2023-04-29T13:24:55.300Z,51.07
2023-04-29T13:27:27.379Z,51.37
2023-04-29T13:29:59.134Z,51.49
2023-04-29T13:32:43.196Z,51.94
2023-04-29T13:35:16.824Z,52.76
2023-04-29T13:37:49.411Z,52.61
2023-04-29T13:40:21.642Z,52.91
2023-04-29T13:43:02.555Z,53.57
2023-04-29T13:45:48.348Z,54.17
2023-04-29T13:48:44.253Z,54.37
2023-04-29T13:59:40.010Z,56.09
2023-04-29T14:02:23.248Z,56.89
2023-04-29T14:04:57.212Z,56.96
2023-04-29T14:07:29.233Z,57.01
2023-04-29T14:10:01.088Z,57.20
2023-04-29T14:12:32.856Z,56.83
2023-04-29T14:15:05.793Z,56.54
2023-04-29T14:17:37.568Z,56.19
2023-04-29T14:20:09.694Z,55.75
2023-04-29T14:22:41.459Z,55.43
2023-04-29T14:25:13.555Z,54.77
2023-04-29T14:27:45.371Z,53.57
2023-04-29T14:30:17.115Z,53.05
2023-04-29T14:32:48.941Z,52.65
2023-04-29T14:35:20.643Z,51.94
2023-04-29T14:37:52.628Z,51.79
2023-04-29T14:40:24.377Z,51.21
2023-04-29T14:42:56.179Z,51.43
2023-04-29T14:45:28.261Z,50.54
2023-04-29T14:48:00.081Z,50.84
2023-04-29T14:50:31.855Z,50.75
2023-04-29T14:53:04.282Z,50.32
2023-04-29T14:55:35.995Z,51.15
2023-04-29T14:58:09.433Z,50.72
2023-04-29T15:00:42.558Z,50.04
2023-04-29T15:03:22.137Z,49.48
2023-04-29T15:05:55.146Z,49.18
2023-04-29T15:08:27.614Z,49.99
2023-04-29T15:10:59.436Z,50.05
2023-04-29T15:13:32.134Z,49.17
2023-04-29T15:16:07.417Z,49.27
2023-04-29T15:18:39.313Z,49.68
2023-04-29T15:21:11.456Z,49.92
2023-04-29T15:23:43.404Z,50.18
2023-04-29T15:26:15.126Z,50.39
2023-04-29T15:28:46.955Z,51.14
2023-04-29T15:31:18.758Z,50.94
2023-04-29T15:33:55.660Z,50.69
2023-04-29T15:36:32.693Z,49.89
2023-04-29T15:39:04.670Z,49.21
2023-04-29T15:41:37.438Z,49.05
2023-04-29T15:44:09.126Z,49.34
2023-04-29T15:46:43.663Z,49.34
2023-04-29T15:49:15.252Z,49.79
2023-04-29T15:51:46.957Z,49.92
2023-04-29T15:54:18.932Z,50.06
2023-04-29T15:56:50.936Z,50.28
2023-04-29T15:59:22.691Z,49.55
2023-04-29T16:01:54.406Z,49.44
2023-04-29T16:04:26.229Z,49.53
2023-04-29T16:06:58.251Z,49.87
2023-04-29T16:09:30.037Z,50.75
2023-04-29T16:12:02.285Z,51.07
2023-04-29T16:14:34.154Z,51.18
2023-04-29T16:17:06.194Z,51.43
2023-04-29T16:19:38.108Z,51.54
2023-04-29T16:22:09.812Z,51.49
2023-04-29T16:24:41.752Z,51.38
2023-04-29T16:27:13.876Z,51.20
2023-04-29T16:29:45.721Z,50.92
2023-04-29T16:32:17.763Z,51.07
2023-04-29T16:34:49.547Z,50.37
2023-04-29T16:37:22.460Z,50.47
2023-04-29T16:39:54.432Z,50.88
2023-04-29T16:42:26.445Z,50.99
2023-04-29T16:44:58.301Z,50.93
2023-04-29T16:47:30.083Z,51.46
2023-04-29T16:50:01.891Z,51.27
2023-04-29T16:52:34.189Z,51.63
2023-04-29T16:55:11.068Z,51.81
2023-04-29T16:57:43.027Z,51.99
2023-04-29T17:00:14.887Z,51.49
2023-04-29T17:02:47.972Z,51.65
2023-04-29T17:05:21.653Z,51.87
2023-04-29T17:07:54.430Z,52.05
2023-04-29T17:10:27.068Z,52.48
2023-04-29T17:12:58.945Z,53.62
2023-04-29T17:15:31.068Z,54.24
2023-04-29T17:18:03.127Z,55.14
2023-04-29T17:20:35.281Z,55.42
2023-04-29T17:23:07.093Z,56.03
2023-04-29T17:25:39.008Z,56.50
2023-04-29T17:28:11.147Z,56.71
2023-04-29T17:30:42.990Z,57.08
2023-04-29T17:33:14.870Z,57.29
2023-04-29T17:35:46.921Z,58.14
2023-04-29T17:38:18.648Z,58.11
2023-04-29T17:40:50.466Z,57.86
2023-04-29T17:43:22.728Z,58.23
2023-04-29T17:45:58.636Z,58.66
2023-04-29T17:48:32.276Z,59.17
2023-04-29T17:51:04.459Z,59.12
2023-04-29T17:53:36.182Z,59.50
2023-04-29T17:56:07.996Z,59.62
2023-04-29T17:58:39.804Z,59.59
2023-04-29T18:01:11.617Z,60.11
2023-04-29T18:03:43.763Z,60.07
2023-04-29T18:06:15.746Z,60.48
2023-04-29T18:08:47.516Z,60.26
2023-04-29T18:11:19.352Z,60.32
2023-04-29T18:13:53.836Z,60.64
2023-04-29T18:16:27.353Z,60.66
2023-04-29T18:18:59.189Z,61.20
2023-04-29T18:21:31.922Z,61.46
2023-04-29T18:24:04.211Z,61.38
2023-04-29T18:26:36.007Z,61.48
2023-04-29T18:29:07.876Z,61.92
2023-04-29T18:31:39.697Z,62.24
2023-04-29T18:34:11.415Z,62.13
2023-04-29T18:36:43.616Z,62.11
2023-04-29T18:39:15.582Z,62.69
2023-04-29T18:41:48.645Z,62.81
2023-04-29T18:44:20.530Z,62.85
2023-04-29T18:46:53.184Z,63.11
2023-04-29T18:49:25.056Z,63.28
2023-04-29T18:51:56.900Z,63.78
2023-04-29T18:54:28.650Z,63.79
2023-04-29T18:57:03.927Z,64.29
2023-04-29T18:59:38.036Z,64.22
2023-04-29T19:02:09.818Z,64.53
2023-04-29T19:04:41.768Z,64.18
2023-04-29T19:07:13.829Z,64.58
2023-04-29T19:09:45.642Z,64.40
2023-04-29T19:12:19.448Z,64.19
2023-04-29T19:14:51.207Z,64.45
2023-04-29T19:17:23.165Z,64.01
2023-04-29T19:19:55.065Z,64.16
2023-04-29T19:22:28.012Z,64.13
2023-04-29T19:24:59.763Z,64.15
2023-04-29T19:27:31.516Z,64.21
2023-04-29T19:30:03.950Z,64.23
2023-04-29T19:32:35.827Z,64.46
2023-04-29T19:35:07.775Z,64.08
2023-04-29T19:37:40.570Z,64.15
2023-04-29T19:40:12.451Z,63.94
2023-04-29T19:42:44.719Z,63.99
2023-04-29T19:45:16.574Z,64.11
2023-04-29T19:47:49.970Z,63.69
2023-04-29T19:50:22.729Z,63.89
2023-04-29T19:52:55.046Z,63.86
2023-04-29T19:55:27.288Z,63.51
2023-04-29T19:57:59.186Z,63.62
2023-04-29T20:00:31.564Z,63.66
2023-04-29T20:03:03.773Z,64.10
2023-04-29T20:05:35.568Z,64.15
2023-04-29T20:08:07.668Z,64.23
2023-04-29T20:10:39.474Z,64.33
2023-04-29T20:13:11.485Z,64.38
2023-04-29T20:15:43.296Z,64.42
2023-04-29T20:18:15.428Z,64.31
2023-04-29T20:20:50.754Z,63.94
2023-04-29T20:23:22.775Z,63.90
2023-04-29T20:25:54.685Z,64.30
2023-04-29T20:28:26.648Z,64.23
2023-04-29T20:30:59.735Z,64.11
2023-04-29T20:33:31.627Z,64.48
2023-04-29T20:36:06.660Z,64.92
2023-04-29T20:38:41.256Z,64.41
2023-04-29T20:41:17.428Z,64.65
2023-04-29T20:43:49.194Z,64.84
2023-04-29T20:46:23.565Z,64.93
2023-04-29T20:48:57.094Z,65.08
2023-04-29T20:51:29.539Z,65.33
2023-04-29T20:54:01.375Z,64.90
2023-04-29T20:56:35.939Z,64.96
2023-04-29T20:59:07.759Z,64.77
2023-04-29T21:01:39.553Z,64.56
2023-04-29T21:04:11.585Z,65.19
2023-04-29T21:06:43.692Z,65.01
2023-04-29T21:09:16.222Z,65.07
2023-04-29T21:11:48.295Z,64.62
2023-04-29T21:14:20.254Z,64.65
2023-04-29T21:16:52.457Z,64.64
2023-04-29T21:19:24.610Z,64.62
2023-04-29T21:21:56.527Z,64.62
2023-04-29T21:24:28.746Z,64.73
2023-04-29T21:27:00.587Z,64.94
2023-04-29T21:29:34.674Z,64.57
2023-04-29T21:32:07.848Z,64.75
2023-04-29T21:34:39.694Z,64.96
2023-04-29T21:37:12.425Z,65.26
2023-04-29T21:39:44.245Z,65.13
2023-04-29T21:42:21.193Z,64.94
2023-04-29T21:44:59.122Z,65.46
2023-04-29T21:47:31.050Z,65.26
2023-04-29T21:50:02.894Z,65.31
2023-04-29T21:52:35.322Z,65.67
2023-04-29T21:55:07.379Z,65.52
2023-04-29T22:00:33.422Z,65.59
2023-04-29T22:03:10.256Z,65.39
2023-04-29T22:05:42.260Z,65.45
2023-04-29T22:08:14.113Z,65.24
2023-04-29T22:10:46.047Z,65.29
2023-04-29T22:13:17.902Z,65.59
2023-04-29T22:15:50.900Z,65.65
2023-04-29T22:18:22.698Z,65.65
2023-04-29T22:20:54.421Z,65.87
2023-04-29T22:23:26.227Z,65.43
2023-04-29T22:25:58.234Z,65.19
2023-04-29T22:28:30.053Z,65.47
2023-04-29T22:31:01.885Z,65.65
2023-04-29T22:33:35.020Z,65.75
2023-04-29T22:36:09.910Z,65.91
2023-04-29T22:38:41.711Z,65.97
2023-04-29T22:41:14.177Z,66.09
2023-04-29T22:43:46.143Z,66.16
2023-04-29T22:46:18.090Z,65.98
2023-04-29T22:48:49.985Z,65.77
2023-04-29T22:51:21.897Z,65.69
2023-04-29T22:53:53.632Z,65.94
2023-04-29T22:56:25.450Z,65.94
2023-04-29T22:58:57.309Z,66.58
2023-04-29T23:01:29.194Z,66.33
2023-04-29T23:04:01.027Z,66.17
2023-04-29T23:06:35.992Z,66.20
2023-04-29T23:09:11.819Z,66.19
2023-04-29T23:11:43.678Z,66.50
2023-04-29T23:14:15.545Z,66.40
2023-04-29T23:16:47.397Z,66.34
2023-04-29T23:19:19.230Z,66.20
2023-04-29T23:21:53.069Z,66.59
2023-04-29T23:24:26.368Z,66.10
2023-04-29T23:26:58.338Z,66.62
2023-04-29T23:29:36.546Z,66.88
2023-04-29T23:32:08.386Z,66.47
2023-04-29T23:34:40.323Z,66.77
2023-04-29T23:37:12.255Z,66.61
2023-04-29T23:39:44.047Z,67.02
2023-04-29T23:42:18.819Z,66.66
2023-04-29T23:44:50.900Z,67.11
2023-04-29T23:47:22.785Z,66.97
2023-04-29T23:49:54.895Z,66.77
2023-04-29T23:52:26.970Z,66.44
2023-04-29T23:54:58.940Z,66.34
2023-04-29T23:57:30.807Z,66.56
